createdAt,value
2023-05-01T00:01:40.733Z,100776.41
2023-05-01T00:04:09.218Z,100777.55
2023-05-01T00:06:37.872Z,100773.32
2023-05-01T00:09:07.306Z,100774.02
2023-05-01T00:11:37.546Z,100767.00
2023-05-01T00:14:06.015Z,100767.23
2023-05-01T00:16:36.179Z,100764.67
2023-05-01T00:19:05.179Z,100761.91
2023-05-01T00:21:33.629Z,100761.20
2023-05-01T00:24:01.967Z,100758.94
2023-05-01T00:26:31.584Z,100755.58
2023-05-01T00:29:00.027Z,100751.61
2023-05-01T00:31:28.487Z,100754.23
2023-05-01T00:33:57.656Z,100750.80
2023-05-01T00:36:26.207Z,100748.36
2023-05-01T00:38:54.794Z,100746.61
2023-05-01T00:41:23.155Z,100743.83
2023-05-01T00:43:51.545Z,100744.96
2023-05-01T00:46:20.104Z,100746.09
2023-05-01T00:48:48.629Z,100742.55
2023-05-01T00:51:17.177Z,100738.15
2023-05-01T00:53:45.562Z,100737.20
2023-05-01T00:56:15.058Z,100742.16
2023-05-01T00:58:49.714Z,100743.66
2023-05-01T01:01:18.773Z,100743.61
2023-05-01T01:03:48.286Z,100740.91
2023-05-01T01:06:56.297Z,100741.05
2023-05-01T01:09:52.227Z,100746.89
2023-05-01T01:12:50.585Z,100742.75
2023-05-01T01:15:35.962Z,100743.30
2023-05-01T01:18:43.847Z,100741.58
2023-05-01T01:21:37.911Z,100740.77
2023-05-01T01:24:31.210Z,100736.08
2023-05-01T01:27:52.775Z,100732.35
2023-05-01T01:31:04.490Z,100731.94
2023-05-01T01:34:13.362Z,100730.56
2023-05-01T01:37:22.154Z,100728.86
2023-05-01T01:40:01.312Z,100725.94
2023-05-01T01:42:46.405Z,100725.21
2023-05-01T01:45:35.852Z,100732.02
2023-05-01T01:48:07.306Z,100729.02
2023-05-01T01:50:37.320Z,100729.74
2023-05-01T01:53:08.714Z,100727.27
2023-05-01T01:55:40.297Z,100728.12
2023-05-01T01:58:10.670Z,100729.45
2023-05-01T02:00:42.594Z,100726.46
2023-05-01T02:03:13.214Z,100728.02
2023-05-01T02:05:43.638Z,100727.10
2023-05-01T02:08:14.804Z,100727.47
2023-05-01T02:10:45.343Z,100723.27
2023-05-01T02:13:15.793Z,100717.52
2023-05-01T02:15:46.091Z,100719.16
2023-05-01T02:18:15.057Z,100712.88
2023-05-01T02:20:44.700Z,100710.89
2023-05-01T02:23:13.742Z,100708.36
2023-05-01T02:25:44.294Z,100711.05
2023-05-01T02:28:14.465Z,100708.08
2023-05-01T02:30:42.879Z,100707.64
2023-05-01T02:33:11.425Z,100705.69
2023-05-01T02:35:47.515Z,100708.36
2023-05-01T02:38:18.734Z,100707.83
2023-05-01T02:40:51.902Z,100705.73
2023-05-01T02:43:23.391Z,100705.36
2023-05-01T02:45:53.763Z,100701.13
2023-05-01T02:48:28.669Z,100699.66
2023-05-01T02:50:57.324Z,100694.75
2023-05-01T02:53:25.774Z,100694.64
2023-05-01T02:55:54.679Z,100693.99
2023-05-01T02:58:23.626Z,100693.35
2023-05-01T03:00:52.061Z,100690.27
2023-05-01T03:03:20.755Z,100693.59
2023-05-01T03:05:49.245Z,100690.86
2023-05-01T03:08:17.817Z,100687.63
2023-05-01T03:10:46.174Z,100688.14
2023-05-01T03:13:14.532Z,100691.71
2023-05-01T03:15:43.332Z,100691.31
2023-05-01T03:18:11.829Z,100690.39
2023-05-01T03:20:40.553Z,100690.11
2023-05-01T03:23:09.210Z,100684.69
2023-05-01T03:25:38.130Z,100683.40
2023-05-01T03:28:06.568Z,100684.16
2023-05-01T03:30:35.271Z,100681.42
2023-05-01T03:33:03.765Z,100678.38
2023-05-01T03:35:32.406Z,100675.96
2023-05-01T03:38:00.823Z,100676.34
2023-05-01T03:40:29.341Z,100679.63
2023-05-01T03:42:57.653Z,100684.77
2023-05-01T03:45:26.224Z,100683.04
2023-05-01T03:47:54.886Z,100678.73
2023-05-01T03:50:23.480Z,100675.80
2023-05-01T03:52:51.949Z,100678.70
2023-05-01T03:55:20.398Z,100677.39
2023-05-01T03:57:48.789Z,100678.34
2023-05-01T04:00:17.195Z,100677.02
2023-05-01T04:02:45.861Z,100678.48
2023-05-01T04:05:15.204Z,100678.66
2023-05-01T04:07:44.160Z,100676.45
2023-05-01T04:10:12.562Z,100675.74
2023-05-01T04:12:43.933Z,100673.85
2023-05-01T04:15:14.194Z,100673.34
2023-05-01T04:17:44.310Z,100674.33
2023-05-01T04:20:12.630Z,100671.05
2023-05-01T04:22:41.117Z,100668.27
2023-05-01T04:25:10.484Z,100667.52
2023-05-01T04:27:38.806Z,100668.30
2023-05-01T04:30:08.477Z,100669.60
2023-05-01T04:32:36.894Z,100671.88
2023-05-01T04:35:06.004Z,100671.76
2023-05-01T04:37:35.712Z,100669.00
2023-05-01T04:40:05.080Z,100671.24
2023-05-01T04:42:33.815Z,100671.09
2023-05-01T04:45:04.524Z,100671.57
2023-05-01T04:47:32.918Z,100670.01
2023-05-01T04:50:01.295Z,100668.04
2023-05-01T04:52:29.649Z,100669.65
2023-05-01T04:54:58.046Z,100667.13
2023-05-01T04:57:26.382Z,100670.85
2023-05-01T04:59:54.923Z,100665.54
2023-05-01T05:02:23.726Z,100664.70
2023-05-01T05:04:54.081Z,100667.58
2023-05-01T05:07:23.269Z,100668.98
2023-05-01T05:09:51.790Z,100667.19
2023-05-01T05:12:20.082Z,100664.91
2023-05-01T05:14:48.438Z,100667.59
2023-05-01T05:17:16.796Z,100665.65
2023-05-01T05:19:45.568Z,100663.16
2023-05-01T05:22:13.910Z,100663.13
2023-05-01T05:24:42.467Z,100661.16
2023-05-01T05:27:10.793Z,100663.54
2023-05-01T05:29:39.100Z,100661.09
2023-05-01T05:32:07.531Z,100660.27
2023-05-01T05:34:35.967Z,100656.83
2023-05-01T05:37:04.801Z,100651.50
2023-05-01T05:39:33.448Z,100648.59
2023-05-01T05:42:02.045Z,100651.14
2023-05-01T05:44:31.723Z,100650.92
2023-05-01T05:47:00.003Z,100652.15
2023-05-01T05:49:28.780Z,100650.39
2023-05-01T05:51:57.177Z,100648.48
2023-05-01T05:54:25.624Z,100644.33
2023-05-01T05:56:53.971Z,100645.82
2023-05-01T05:59:22.375Z,100646.41
2023-05-01T06:01:50.692Z,100645.89
2023-05-01T06:04:19.114Z,100642.33
2023-05-01T06:06:48.815Z,100640.64
2023-05-01T06:09:18.991Z,100644.14
2023-05-01T06:11:48.281Z,100644.98
2023-05-01T06:14:19.292Z,100644.11
2023-05-01T06:16:47.735Z,100647.68
2023-05-01T06:19:16.377Z,100647.08
2023-05-01T06:21:44.712Z,100643.40
2023-05-01T06:24:13.401Z,100644.44
2023-05-01T06:26:41.925Z,100643.69
2023-05-01T06:29:10.276Z,100639.24
2023-05-01T06:31:38.703Z,100638.73
2023-05-01T06:34:07.139Z,100638.34
2023-05-01T06:36:35.780Z,100638.08
2023-05-01T06:39:04.448Z,100635.02
2023-05-01T06:41:34.414Z,100635.27
2023-05-01T06:44:02.872Z,100633.17
2023-05-01T06:46:31.378Z,100629.61
2023-05-01T06:48:59.870Z,100625.74
2023-05-01T06:51:28.260Z,100631.54
2023-05-01T06:53:56.765Z,100626.19
2023-05-01T06:56:25.175Z,100623.86
2023-05-01T06:58:53.597Z,100619.80
2023-05-01T07:01:22.195Z,100621.27
2023-05-01T07:03:50.746Z,100618.26
2023-05-01T07:06:19.172Z,100614.65
2023-05-01T07:08:47.898Z,100607.95
2023-05-01T07:11:16.616Z,100610.96
2023-05-01T07:13:45.053Z,100614.54
2023-05-01T07:16:13.532Z,100608.26
2023-05-01T07:18:42.015Z,100609.02
2023-05-01T07:21:12.026Z,100604.80
2023-05-01T07:23:40.412Z,100604.64
2023-05-01T07:26:08.760Z,100599.52
2023-05-01T07:28:37.153Z,100601.34
2023-05-01T07:31:05.610Z,100602.10
2023-05-01T07:33:34.292Z,100602.84
2023-05-01T07:36:03.541Z,100601.86
2023-05-01T07:38:31.853Z,100597.54
2023-05-01T07:41:00.389Z,100595.98
2023-05-01T07:43:28.967Z,100590.67
2023-05-01T07:46:00.396Z,100591.48
2023-05-01T07:48:29.472Z,100592.98
2023-05-01T07:51:02.144Z,100593.73
2023-05-01T07:53:30.643Z,100591.52
2023-05-01T07:56:08.448Z,100588.13
2023-05-01T07:58:37.228Z,100587.30
2023-05-01T08:01:06.154Z,100589.88
2023-05-01T08:03:35.014Z,100586.30
2023-05-01T08:06:03.740Z,100580.90
2023-05-01T08:08:32.230Z,100585.21
2023-05-01T08:11:00.740Z,100586.41
2023-05-01T08:13:29.142Z,100589.27
2023-05-01T08:16:03.132Z,100585.31
2023-05-01T08:18:31.688Z,100585.45
2023-05-01T08:21:00.130Z,100585.96
2023-05-01T08:23:28.533Z,100579.18
2023-05-01T08:25:56.956Z,100575.14
2023-05-01T08:28:25.463Z,100576.45
2023-05-01T08:30:53.867Z,100568.67
2023-05-01T08:33:22.371Z,100570.24
2023-05-01T08:35:51.343Z,100563.50
2023-05-01T08:38:41.822Z,100562.10
2023-05-01T08:41:15.198Z,100561.47
2023-05-01T08:43:43.810Z,100555.39
2023-05-01T08:46:15.650Z,100561.25
2023-05-01T08:48:44.934Z,100563.80
2023-05-01T08:51:16.665Z,100560.40
2023-05-01T08:53:50.497Z,100557.76
2023-05-01T08:56:21.675Z,100557.14
2023-05-01T08:58:51.172Z,100556.05
2023-05-01T09:01:22.396Z,100548.77
2023-05-01T09:03:52.984Z,100548.11
2023-05-01T09:06:22.749Z,100539.38
2023-05-01T09:08:51.558Z,100531.52
2023-05-01T09:11:23.091Z,100529.48
2023-05-01T09:13:53.249Z,100530.98
2023-05-01T09:16:22.057Z,100520.92
2023-05-01T09:18:50.822Z,100520.06
2023-05-01T09:21:19.894Z,100516.02
2023-05-01T09:23:51.763Z,100513.94
2023-05-01T09:26:22.009Z,100511.51
2023-05-01T09:28:52.087Z,100515.02
2023-05-01T09:31:32.980Z,100513.59
2023-05-01T09:34:03.987Z,100507.61
2023-05-01T09:36:34.982Z,100504.02
2023-05-01T09:39:04.182Z,100505.01
2023-05-01T09:41:33.652Z,100503.02
2023-05-01T09:44:02.376Z,100500.89
2023-05-01T09:46:42.175Z,100498.39
2023-05-01T09:49:10.663Z,100504.02
2023-05-01T09:51:39.587Z,100492.66
2023-05-01T09:54:20.971Z,100489.14
2023-05-01T09:56:50.066Z,100485.05
2023-05-01T09:59:21.107Z,100484.62
2023-05-01T10:01:50.641Z,100486.02
2023-05-01T10:04:34.267Z,100483.15
2023-05-01T10:07:14.017Z,100481.36
2023-05-01T10:09:42.582Z,100474.02
2023-05-01T10:12:22.522Z,100469.21
2023-05-01T10:14:56.132Z,100463.73
2023-05-01T10:17:24.635Z,100457.66
2023-05-01T10:19:53.291Z,100460.16
2023-05-01T10:22:21.904Z,100462.40
2023-05-01T10:27:22.314Z,100452.33
2023-05-01T10:29:53.561Z,100450.21
2023-05-01T10:32:22.279Z,100451.84
2023-05-01T10:35:02.531Z,100446.70
2023-05-01T10:37:48.299Z,100438.64
2023-05-01T10:40:49.435Z,100436.77
2023-05-01T10:43:21.143Z,100434.61
2023-05-01T10:45:49.700Z,100431.09
2023-05-01T10:48:54.208Z,100426.98
2023-05-01T10:51:28.412Z,100423.66
2023-05-01T10:54:12.306Z,100421.27
2023-05-01T10:56:43.442Z,100413.36
2023-05-01T10:59:13.106Z,100411.56
2023-05-01T11:01:45.401Z,100411.92
2023-05-01T11:04:22.826Z,100411.17
2023-05-01T11:07:10.920Z,100407.21
2023-05-01T11:19:54.614Z,100389.98
2023-05-01T11:22:24.459Z,100389.04
2023-05-01T11:24:52.801Z,100382.53
2023-05-01T11:27:21.905Z,100374.43
2023-05-01T11:29:50.656Z,100368.35
2023-05-01T11:32:27.325Z,100363.73
2023-05-01T11:34:57.402Z,100365.63
2023-05-01T11:37:45.024Z,100360.23
2023-05-01T11:40:22.180Z,100357.35
2023-05-01T11:43:00.636Z,100348.83
2023-05-01T11:45:29.946Z,100342.39
2023-05-01T11:48:01.367Z,100337.97
2023-05-01T11:50:39.085Z,100332.63
2023-05-01T11:53:15.266Z,100326.07
2023-05-01T11:55:45.109Z,100319.98
2023-05-01T11:58:13.576Z,100316.76
2023-05-01T12:00:44.070Z,100311.67
2023-05-01T12:03:14.899Z,100310.13
2023-05-01T12:05:45.398Z,100306.95
2023-05-01T12:08:23.641Z,100305.85
2023-05-01T12:10:56.188Z,100301.71
2023-05-01T12:13:29.116Z,100295.48
2023-05-01T12:15:57.744Z,100289.38
2023-05-01T12:18:26.364Z,100287.80
2023-05-01T12:20:55.451Z,100290.34
2023-05-01T12:23:39.697Z,100285.70
2023-05-01T12:26:23.834Z,100282.33
2023-05-01T12:29:01.863Z,100279.21
2023-05-01T12:31:30.881Z,100278.05
2023-05-01T12:34:02.582Z,100272.64
2023-05-01T12:36:35.020Z,100272.05
2023-05-01T12:39:14.332Z,100265.21
2023-05-01T12:41:45.896Z,100266.33
2023-05-01T12:44:22.831Z,100260.83
2023-05-01T12:47:03.143Z,100262.02
2023-05-01T12:49:32.779Z,100247.91
2023-05-01T12:52:02.184Z,100244.98
2023-05-01T12:54:39.504Z,100239.94
2023-05-01T12:57:16.841Z,100238.57
2023-05-01T12:59:47.408Z,100239.88
2023-05-01T13:02:18.179Z,100237.06
2023-05-01T13:04:49.384Z,100230.55
2023-05-01T13:07:19.466Z,100221.90
2023-05-01T13:10:00.898Z,100219.02
2023-05-01T13:12:30.802Z,100210.70
2023-05-01T13:15:00.217Z,100211.69
2023-05-01T13:17:32.062Z,100206.55
2023-05-01T13:20:05.669Z,100202.84
2023-05-01T13:22:36.714Z,100200.05
2023-05-01T13:25:17.460Z,100194.42
2023-05-01T13:27:51.327Z,100192.98
2023-05-01T13:30:30.579Z,100186.25
2023-05-01T13:32:59.272Z,100179.36
2023-05-01T13:35:28.200Z,100182.06
2023-05-01T13:37:56.982Z,100182.38
2023-05-01T13:40:27.925Z,100178.80
2023-05-01T13:42:56.354Z,100179.62
2023-05-01T13:45:24.785Z,100176.95
2023-05-01T13:47:53.236Z,100170.07
2023-05-01T13:50:21.825Z,100165.56
2023-05-01T13:52:50.257Z,100159.13
2023-05-01T13:55:21.405Z,100154.69
2023-05-01T13:57:49.976Z,100153.90
2023-05-01T14:00:19.234Z,100150.75
2023-05-01T14:02:49.272Z,100147.52
2023-05-01T14:05:24.791Z,100146.52
2023-05-01T14:07:58.495Z,100142.54
2023-05-01T14:10:28.923Z,100137.27
2023-05-01T14:13:01.275Z,100134.11
2023-05-01T14:15:29.767Z,100127.27
2023-05-01T14:18:01.072Z,100127.61
2023-05-01T14:20:29.625Z,100124.48
2023-05-01T14:23:00.018Z,100123.80
2023-05-01T14:25:31.638Z,100120.67
2023-05-01T14:28:02.011Z,100112.60
2023-05-01T14:30:38.350Z,100106.31
2023-05-01T14:33:12.259Z,100104.51
2023-05-01T14:35:52.144Z,100099.30
2023-05-01T14:38:22.670Z,100092.13
2023-05-01T14:40:51.333Z,100085.16
2023-05-01T14:43:22.469Z,100081.08
2023-05-01T14:45:51.236Z,100079.21
2023-05-01T14:48:25.203Z,100079.10
2023-05-01T14:50:54.951Z,100081.29
2023-05-01T14:53:23.562Z,100076.64
2023-05-01T14:55:52.447Z,100073.15
2023-05-01T14:58:20.790Z,100074.65
2023-05-01T15:00:49.231Z,100071.69
2023-05-01T15:03:18.342Z,100070.87
2023-05-01T15:05:46.921Z,100072.70
2023-05-01T15:08:15.660Z,100065.81
2023-05-01T15:10:45.033Z,100062.11
2023-05-01T15:13:13.520Z,100060.77
2023-05-01T15:15:41.855Z,100056.29
2023-05-01T15:18:10.223Z,100053.48
2023-05-01T15:20:38.648Z,100049.93
2023-05-01T15:23:06.967Z,100047.66
2023-05-01T15:25:35.619Z,100040.69
2023-05-01T15:28:04.211Z,100041.10
2023-05-01T15:30:32.674Z,100039.45
2023-05-01T15:33:01.104Z,100034.13
2023-05-01T15:35:30.183Z,100033.34
2023-05-01T15:37:58.448Z,100029.89
2023-05-01T15:40:26.894Z,100028.95
2023-05-01T15:42:55.914Z,100025.17
2023-05-01T15:45:24.397Z,100019.35
2023-05-01T15:47:53.316Z,100015.33
2023-05-01T15:50:23.571Z,100010.69
2023-05-01T15:52:52.512Z,100006.55
2023-05-01T15:55:21.716Z,100007.02
2023-05-01T15:57:50.149Z,100004.59
2023-05-01T16:00:19.626Z,99998.83
2023-05-01T16:02:48.253Z,100003.77
2023-05-01T16:05:21.420Z,100001.55
2023-05-01T16:07:56.167Z,100004.91
2023-05-01T16:10:25.527Z,100002.48
2023-05-01T16:12:54.065Z,99996.46
2023-05-01T16:15:23.002Z,99999.13
2023-05-01T16:17:51.958Z,99995.74
2023-05-01T16:20:21.093Z,99992.70
2023-05-01T16:22:49.919Z,99992.72
2023-05-01T16:25:18.343Z,99990.06
2023-05-01T16:27:47.448Z,99986.15
2023-05-01T16:30:16.922Z,99981.83
2023-05-01T16:32:46.145Z,99977.83
2023-05-01T16:35:18.349Z,99977.92
2023-05-01T16:37:46.811Z,99977.11
2023-05-01T16:40:18.459Z,99975.63
2023-05-01T16:42:52.089Z,99974.40
2023-05-01T16:45:21.453Z,99975.80
2023-05-01T16:47:49.916Z,99977.21
2023-05-01T16:50:21.978Z,99980.17
2023-05-01T16:52:52.205Z,99982.94
2023-05-01T16:55:22.134Z,99983.23
2023-05-01T16:57:50.917Z,99978.98
2023-05-01T17:00:19.849Z,99982.61
2023-05-01T17:02:49.972Z,99982.60
2023-05-01T17:05:18.796Z,99984.92
2023-05-01T17:07:47.117Z,99982.15
2023-05-01T17:10:15.662Z,99981.56
2023-05-01T17:12:44.545Z,99981.40
2023-05-01T17:15:12.929Z,99979.08
2023-05-01T17:17:41.357Z,99975.96
2023-05-01T17:20:11.292Z,99973.73
2023-05-01T17:22:39.613Z,99974.14
2023-05-01T17:25:08.784Z,99968.29
2023-05-01T17:27:37.797Z,99968.30
2023-05-01T17:30:07.244Z,99963.88
2023-05-01T17:32:37.319Z,99959.25
2023-05-01T17:35:06.756Z,99961.05
2023-05-01T17:37:35.157Z,99956.80
2023-05-01T17:40:05.047Z,99956.36
2023-05-01T17:42:33.646Z,99953.58
2023-05-01T17:45:02.063Z,99960.30
2023-05-01T17:47:30.412Z,99961.88
2023-05-01T17:50:00.809Z,99953.63
2023-05-01T17:52:29.360Z,99957.35
2023-05-01T17:54:57.806Z,99954.82
2023-05-01T17:57:26.813Z,99959.38
2023-05-01T17:59:55.202Z,99957.92
2023-05-01T18:02:25.277Z,99960.06
2023-05-01T18:04:53.925Z,99966.36
2023-05-01T18:07:22.370Z,99965.69
2023-05-01T18:09:50.847Z,99964.27
2023-05-01T18:12:19.657Z,99963.61
2023-05-01T18:14:48.073Z,99967.77
2023-05-01T18:17:16.661Z,99967.88
2023-05-01T18:19:45.203Z,99967.80
2023-05-01T18:22:13.700Z,99967.14
2023-05-01T18:24:42.251Z,99972.17
2023-05-01T18:27:10.587Z,99970.13
2023-05-01T18:29:38.999Z,99974.13
2023-05-01T18:32:08.965Z,99981.62
2023-05-01T18:34:38.727Z,99981.88
2023-05-01T18:37:07.174Z,99982.02
2023-05-01T18:39:35.525Z,99983.23
2023-05-01T18:42:04.049Z,99983.05
2023-05-01T18:44:32.381Z,99983.20
2023-05-01T18:47:00.664Z,99981.51
2023-05-01T18:49:29.020Z,99984.11
2023-05-01T18:51:57.458Z,99987.95
2023-05-01T18:54:25.838Z,99988.02
2023-05-01T18:56:54.156Z,99990.05
2023-05-01T18:59:22.766Z,99993.14
2023-05-01T19:01:51.609Z,99997.35
2023-05-01T19:04:20.159Z,99997.89
2023-05-01T19:06:48.541Z,99991.62
2023-05-01T19:09:16.958Z,99997.78
2023-05-01T19:11:45.389Z,99995.83
2023-05-01T19:14:13.718Z,99994.31
2023-05-01T19:16:42.306Z,99995.53
2023-05-01T19:19:10.714Z,99993.77
2023-05-01T19:21:39.157Z,99990.00
2023-05-01T19:24:08.192Z,99989.10
2023-05-01T19:26:36.546Z,99989.36
2023-05-01T19:29:04.878Z,99988.09
2023-05-01T19:31:33.328Z,99988.33
2023-05-01T19:34:01.641Z,99992.11
2023-05-01T19:36:30.005Z,99990.86
2023-05-01T19:38:58.304Z,99990.89
2023-05-01T19:41:26.581Z,99995.80
2023-05-01T19:43:55.063Z,99994.20
2023-05-01T19:46:23.461Z,99990.59
2023-05-01T19:48:52.312Z,99997.71
2023-05-01T19:51:20.762Z,99996.19
2023-05-01T19:53:49.241Z,99998.42
2023-05-01T19:56:17.516Z,99995.05
2023-05-01T19:58:45.836Z,99991.68
2023-05-01T20:01:14.424Z,99998.79
2023-05-01T20:03:42.994Z,99997.30
2023-05-01T20:06:11.324Z,100003.25
2023-05-01T20:08:41.440Z,99999.77
2023-05-01T20:11:11.262Z,99998.39
2023-05-01T20:13:39.624Z,100001.14
2023-05-01T20:16:09.957Z,99998.19
2023-05-01T20:18:38.422Z,100000.79
2023-05-01T20:21:07.756Z,100000.04
2023-05-01T20:23:36.136Z,99998.88
2023-05-01T20:26:04.503Z,99996.65
2023-05-01T20:28:32.966Z,99992.02
2023-05-01T20:31:01.784Z,99992.40
2023-05-01T20:33:30.419Z,99990.14
2023-05-01T20:35:59.380Z,99993.26
2023-05-01T20:38:27.710Z,99989.69
2023-05-01T20:40:56.222Z,99994.69
2023-05-01T20:43:24.756Z,99991.39
2023-05-01T20:45:53.220Z,100001.02
2023-05-01T20:48:21.673Z,100004.34
2023-05-01T20:50:50.080Z,100006.13
2023-05-01T20:53:19.052Z,100006.95
2023-05-01T20:55:47.727Z,100006.48
2023-05-01T20:58:16.299Z,100004.55
2023-05-01T21:00:44.721Z,100002.33
2023-05-01T21:03:15.172Z,100000.73
2023-05-01T21:05:43.946Z,100001.98
2023-05-01T21:08:12.255Z,100006.61
2023-05-01T21:10:41.000Z,100000.96
2023-05-01T21:13:09.687Z,99999.90
2023-05-01T21:15:41.383Z,99999.17
2023-05-01T21:18:12.470Z,99999.48
2023-05-01T21:20:42.586Z,100001.29
2023-05-01T21:23:13.121Z,99999.27
2023-05-01T21:25:41.910Z,99996.47
2023-05-01T21:28:14.866Z,99998.83
2023-05-01T21:30:43.183Z,99997.09
2023-05-01T21:33:15.491Z,99999.64
2023-05-01T21:35:46.284Z,100001.44
2023-05-01T21:38:14.795Z,99998.61
2023-05-01T21:40:46.148Z,99997.23
2023-05-01T21:43:14.740Z,100000.89
2023-05-01T21:45:44.382Z,100002.00
2023-05-01T21:48:16.564Z,100005.34
2023-05-01T21:50:49.604Z,100003.86
2023-05-01T21:53:17.944Z,100006.56
2023-05-01T21:55:46.617Z,100000.25
2023-05-01T21:58:15.158Z,99999.20
2023-05-01T22:00:46.142Z,100000.05
2023-05-01T22:03:18.114Z,99997.45
2023-05-01T22:05:46.817Z,100002.13
2023-05-01T22:08:15.135Z,99999.70
2023-05-01T22:10:45.400Z,100002.94
2023-05-01T22:13:13.923Z,100003.77
2023-05-01T22:15:42.487Z,100004.07
2023-05-01T22:18:11.027Z,100003.67
2023-05-01T22:20:39.317Z,100004.06
2023-05-01T22:23:07.810Z,100004.23
2023-05-01T22:25:36.194Z,100001.56
2023-05-01T22:28:05.730Z,100001.18
2023-05-01T22:30:37.503Z,99999.38
2023-05-01T22:33:05.905Z,99998.02
2023-05-01T22:35:34.306Z,99998.71
2023-05-01T22:38:02.677Z,100004.27
2023-05-01T22:40:31.050Z,99997.35
2023-05-01T22:43:00.263Z,99994.02
2023-05-01T22:45:28.693Z,99993.63
2023-05-01T22:47:57.195Z,99991.69
2023-05-01T22:50:25.627Z,99991.72
2023-05-01T22:52:53.964Z,99985.16
2023-05-01T22:55:22.276Z,99987.20
2023-05-01T22:57:51.001Z,99986.22
2023-05-01T23:00:19.731Z,99987.65
2023-05-01T23:02:48.216Z,99982.70
2023-05-01T23:05:17.745Z,99981.71
2023-05-01T23:07:46.093Z,99980.98
2023-05-01T23:10:15.442Z,99980.33
2023-05-01T23:12:45.758Z,99978.17
2023-05-01T23:15:21.107Z,99975.27
2023-05-01T23:17:49.998Z,99971.73
2023-05-01T23:20:24.504Z,99970.00
2023-05-01T23:22:53.422Z,99965.59
2023-05-01T23:25:26.056Z,99967.05
2023-05-01T23:27:56.883Z,99965.59
2023-05-01T23:30:25.443Z,99969.43
2023-05-01T23:32:58.055Z,99970.27
2023-05-01T23:35:26.597Z,99971.15
2023-05-01T23:37:54.973Z,99973.11
2023-05-01T23:40:23.463Z,99972.70
2023-05-01T23:42:51.893Z,99974.44
2023-05-01T23:45:20.645Z,99969.30
2023-05-01T23:47:49.035Z,99968.61
2023-05-01T23:50:17.609Z,99971.17
2023-05-01T23:52:46.642Z,99969.17
2023-05-01T23:55:15.123Z,99966.91
2023-05-01T23:57:43.752Z,99968.30
